sensor_id;sensor_type;location;lat;lon;timestamp;temperature;humidity
58554;DHT22;48119;53.218;6.576;2023-09-19T00:02:11;18.40;99.90
58554;DHT22;48119;53.218;6.576;2023-09-19T00:10:33;18.30;99.90
58554;DHT22;48119;53.218;6.576;2023-09-19T00:13:22;18.30;99.90
58554;DHT22;48119;53.218;6.576;2023-09-19T00:15:55;18.30;99.90
58554;DHT22;48119;53.218;6.576;2023-09-19T00:18:24;18.30;99.90
58554;DHT22;48119;53.218;6.576;2023-09-19T00:21:00;18.20;99.90
58554;DHT22;48119;53.218;6.576;2023-09-19T00:23:32;18.20;99.90
58554;DHT22;48119;53.218;6.576;2023-09-19T00:28:56;18.10;99.90
58554;DHT22;48119;53.218;6.576;2023-09-19T00:31:30;18.10;99.90
58554;DHT22;48119;53.218;6.576;2023-09-19T00:34:03;18.10;99.90
58554;DHT22;48119;53.218;6.576;2023-09-19T00:36:37;18.10;99.90
58554;DHT22;48119;53.218;6.576;2023-09-19T00:39:14;18.10;99.90
58554;DHT22;48119;53.218;6.576;2023-09-19T00:41:53;18.10;99.90
58554;DHT22;48119;53.218;6.576;2023-09-19T00:44:34;18.10;99.90
58554;DHT22;48119;53.218;6.576;2023-09-19T00:47:12;18.10;99.90
58554;DHT22;48119;53.218;6.576;2023-09-19T00:49:46;18.00;99.90
58554;DHT22;48119;53.218;6.576;2023-09-19T00:52:17;17.90;99.90
58554;DHT22;48119;53.218;6.576;2023-09-19T00:54:52;18.00;99.90
58554;DHT22;48119;53.218;6.576;2023-09-19T00:57:36;17.90;99.90
58554;DHT22;48119;53.218;6.576;2023-09-19T01:00:16;17.90;99.90
58554;DHT22;48119;53.218;6.576;2023-09-19T01:02:47;17.80;99.90
58554;DHT22;48119;53.218;6.576;2023-09-19T01:05:16;17.80;99.90
58554;DHT22;48119;53.218;6.576;2023-09-19T01:07:45;17.80;99.90
58554;DHT22;48119;53.218;6.576;2023-09-19T01:10:30;17.80;99.90
58554;DHT22;48119;53.218;6.576;2023-09-19T01:22:07;17.80;99.90
58554;DHT22;48119;53.218;6.576;2023-09-19T01:30:09;17.70;99.90
58554;DHT22;48119;53.218;6.576;2023-09-19T01:32:38;17.70;99.90
58554;DHT22;48119;53.218;6.576;2023-09-19T01:35:09;17.70;99.90
58554;DHT22;48119;53.218;6.576;2023-09-19T01:37:38;17.70;99.90
58554;DHT22;48119;53.218;6.576;2023-09-19T01:48:12;17.70;99.90
58554;DHT22;48119;53.218;6.576;2023-09-19T01:50:49;17.70;99.90
58554;DHT22;48119;53.218;6.576;2023-09-19T01:53:27;17.60;99.90
58554;DHT22;48119;53.218;6.576;2023-09-19T01:55:58;17.60;99.90
58554;DHT22;48119;53.218;6.576;2023-09-19T02:00:55;17.60;99.90
58554;DHT22;48119;53.218;6.576;2023-09-19T02:03:22;17.60;99.90
58554;DHT22;48119;53.218;6.576;2023-09-19T02:05:52;17.60;99.90
58554;DHT22;48119;53.218;6.576;2023-09-19T02:08:19;17.60;99.90
58554;DHT22;48119;53.218;6.576;2023-09-19T02:10:45;17.60;99.90
58554;DHT22;48119;53.218;6.576;2023-09-19T02:13:17;17.60;99.90
58554;DHT22;48119;53.218;6.576;2023-09-19T02:15:44;17.50;99.90
58554;DHT22;48119;53.218;6.576;2023-09-19T02:18:10;17.50;99.90
58554;DHT22;48119;53.218;6.576;2023-09-19T02:20:37;17.50;99.90
58554;DHT22;48119;53.218;6.576;2023-09-19T02:23:03;17.50;99.90
58554;DHT22;48119;53.218;6.576;2023-09-19T02:25:28;17.50;99.90
58554;DHT22;48119;53.218;6.576;2023-09-19T02:27:54;17.50;99.90
58554;DHT22;48119;53.218;6.576;2023-09-19T02:30:24;17.50;99.90
58554;DHT22;48119;53.218;6.576;2023-09-19T02:32:51;17.40;99.90
58554;DHT22;48119;53.218;6.576;2023-09-19T02:35:17;17.40;99.90
58554;DHT22;48119;53.218;6.576;2023-09-19T02:37:45;17.40;99.90
58554;DHT22;48119;53.218;6.576;2023-09-19T02:40:11;17.50;99.90
58554;DHT22;48119;53.218;6.576;2023-09-19T02:42:53;17.40;99.90
58554;DHT22;48119;53.218;6.576;2023-09-19T02:45:19;17.40;99.90
58554;DHT22;48119;53.218;6.576;2023-09-19T02:47:46;17.30;99.90
58554;DHT22;48119;53.218;6.576;2023-09-19T02:50:12;17.30;99.90
58554;DHT22;48119;53.218;6.576;2023-09-19T02:52:41;17.30;99.90
58554;DHT22;48119;53.218;6.576;2023-09-19T02:55:09;17.30;99.90
58554;DHT22;48119;53.218;6.576;2023-09-19T02:57:35;17.20;99.90
58554;DHT22;48119;53.218;6.576;2023-09-19T03:00:02;17.20;99.90
58554;DHT22;48119;53.218;6.576;2023-09-19T03:02:28;17.20;99.90
58554;DHT22;48119;53.218;6.576;2023-09-19T03:04:54;17.20;99.90
58554;DHT22;48119;53.218;6.576;2023-09-19T03:07:22;17.20;99.90
58554;DHT22;48119;53.218;6.576;2023-09-19T03:09:47;17.20;99.90
58554;DHT22;48119;53.218;6.576;2023-09-19T03:12:14;17.10;99.90
58554;DHT22;48119;53.218;6.576;2023-09-19T03:14:41;17.20;99.90
58554;DHT22;48119;53.218;6.576;2023-09-19T03:17:06;17.20;99.90
58554;DHT22;48119;53.218;6.576;2023-09-19T03:19:34;17.10;99.90
58554;DHT22;48119;53.218;6.576;2023-09-19T03:22:00;17.10;99.90
58554;DHT22;48119;53.218;6.576;2023-09-19T03:24:25;17.10;99.90
58554;DHT22;48119;53.218;6.576;2023-09-19T03:26:51;17.10;99.90
58554;DHT22;48119;53.218;6.576;2023-09-19T03:29:17;17.10;99.90
58554;DHT22;48119;53.218;6.576;2023-09-19T03:31:43;17.10;99.90
58554;DHT22;48119;53.218;6.576;2023-09-19T03:34:09;17.10;99.90
58554;DHT22;48119;53.218;6.576;2023-09-19T03:36:35;17.10;99.90
58554;DHT22;48119;53.218;6.576;2023-09-19T03:39:01;17.10;99.90
58554;DHT22;48119;53.218;6.576;2023-09-19T03:41:30;17.10;99.90
58554;DHT22;48119;53.218;6.576;2023-09-19T03:43:56;17.20;99.90
58554;DHT22;48119;53.218;6.576;2023-09-19T03:46:22;17.10;99.90
58554;DHT22;48119;53.218;6.576;2023-09-19T03:48:47;17.10;99.90
58554;DHT22;48119;53.218;6.576;2023-09-19T03:51:13;17.10;99.90
58554;DHT22;48119;53.218;6.576;2023-09-19T03:53:39;17.10;99.90
58554;DHT22;48119;53.218;6.576;2023-09-19T03:56:04;17.10;99.90
58554;DHT22;48119;53.218;6.576;2023-09-19T03:58:30;17.10;99.90
58554;DHT22;48119;53.218;6.576;2023-09-19T04:00:56;17.10;99.90
58554;DHT22;48119;53.218;6.576;2023-09-19T04:03:23;17.00;99.90
58554;DHT22;48119;53.218;6.576;2023-09-19T04:05:49;17.00;99.90
58554;DHT22;48119;53.218;6.576;2023-09-19T04:08:15;17.00;99.90
58554;DHT22;48119;53.218;6.576;2023-09-19T04:10:42;17.00;99.90
58554;DHT22;48119;53.218;6.576;2023-09-19T04:13:07;17.00;99.90
58554;DHT22;48119;53.218;6.576;2023-09-19T04:15:33;17.00;99.90
58554;DHT22;48119;53.218;6.576;2023-09-19T04:17:58;17.00;99.90
58554;DHT22;48119;53.218;6.576;2023-09-19T04:20:25;17.00;99.90
58554;DHT22;48119;53.218;6.576;2023-09-19T04:22:51;16.90;99.90
58554;DHT22;48119;53.218;6.576;2023-09-19T04:25:16;16.90;99.90
58554;DHT22;48119;53.218;6.576;2023-09-19T04:27:43;16.90;99.90
58554;DHT22;48119;53.218;6.576;2023-09-19T04:30:09;16.90;99.90
58554;DHT22;48119;53.218;6.576;2023-09-19T04:32:40;16.90;99.90
58554;DHT22;48119;53.218;6.576;2023-09-19T04:35:06;16.90;99.90
58554;DHT22;48119;53.218;6.576;2023-09-19T04:37:40;16.90;99.90
58554;DHT22;48119;53.218;6.576;2023-09-19T04:40:07;16.90;99.90
58554;DHT22;48119;53.218;6.576;2023-09-19T04:42:38;16.90;99.90
58554;DHT22;48119;53.218;6.576;2023-09-19T04:45:04;16.90;99.90
58554;DHT22;48119;53.218;6.576;2023-09-19T04:47:30;16.90;99.90
58554;DHT22;48119;53.218;6.576;2023-09-19T04:49:56;16.90;99.90
58554;DHT22;48119;53.218;6.576;2023-09-19T04:52:23;16.90;99.90
58554;DHT22;48119;53.218;6.576;2023-09-19T04:54:49;16.90;99.90
58554;DHT22;48119;53.218;6.576;2023-09-19T04:57:14;16.90;99.90
58554;DHT22;48119;53.218;6.576;2023-09-19T04:59:41;16.90;99.90
58554;DHT22;48119;53.218;6.576;2023-09-19T05:02:06;16.90;99.90
58554;DHT22;48119;53.218;6.576;2023-09-19T05:04:33;17.00;99.90
58554;DHT22;48119;53.218;6.576;2023-09-19T05:06:59;16.90;99.90
58554;DHT22;48119;53.218;6.576;2023-09-19T05:09:26;16.90;99.90
58554;DHT22;48119;53.218;6.576;2023-09-19T05:11:52;17.00;99.90
58554;DHT22;48119;53.218;6.576;2023-09-19T05:14:18;16.90;99.90
58554;DHT22;48119;53.218;6.576;2023-09-19T05:16:45;16.90;99.90
58554;DHT22;48119;53.218;6.576;2023-09-19T05:19:10;16.90;99.90
58554;DHT22;48119;53.218;6.576;2023-09-19T05:21:37;16.90;99.90
58554;DHT22;48119;53.218;6.576;2023-09-19T05:24:07;17.00;99.90
58554;DHT22;48119;53.218;6.576;2023-09-19T05:26:32;16.90;99.90
58554;DHT22;48119;53.218;6.576;2023-09-19T05:28:58;16.90;99.90
58554;DHT22;48119;53.218;6.576;2023-09-19T05:31:24;16.90;99.90
58554;DHT22;48119;53.218;6.576;2023-09-19T05:33:51;17.00;99.90
58554;DHT22;48119;53.218;6.576;2023-09-19T05:36:17;16.90;99.90
58554;DHT22;48119;53.218;6.576;2023-09-19T05:38:43;16.90;99.90
58554;DHT22;48119;53.218;6.576;2023-09-19T05:41:10;16.90;99.90
58554;DHT22;48119;53.218;6.576;2023-09-19T05:43:39;16.90;99.90
58554;DHT22;48119;53.218;6.576;2023-09-19T05:46:06;16.90;99.90
58554;DHT22;48119;53.218;6.576;2023-09-19T05:48:33;16.90;99.90
58554;DHT22;48119;53.218;6.576;2023-09-19T05:50:59;16.90;99.90
58554;DHT22;48119;53.218;6.576;2023-09-19T05:53:26;16.90;99.90
58554;DHT22;48119;53.218;6.576;2023-09-19T05:55:52;16.90;99.90
58554;DHT22;48119;53.218;6.576;2023-09-19T05:58:19;16.90;99.90
58554;DHT22;48119;53.218;6.576;2023-09-19T06:00:45;16.90;99.90
58554;DHT22;48119;53.218;6.576;2023-09-19T06:03:12;16.90;99.90
58554;DHT22;48119;53.218;6.576;2023-09-19T06:05:39;16.90;99.90
58554;DHT22;48119;53.218;6.576;2023-09-19T06:08:06;17.00;99.90
58554;DHT22;48119;53.218;6.576;2023-09-19T06:10:36;16.90;99.90
58554;DHT22;48119;53.218;6.576;2023-09-19T06:13:02;16.90;99.90
58554;DHT22;48119;53.218;6.576;2023-09-19T06:15:31;16.90;99.90
58554;DHT22;48119;53.218;6.576;2023-09-19T06:17:58;16.90;99.90
58554;DHT22;48119;53.218;6.576;2023-09-19T06:20:28;16.90;99.90
58554;DHT22;48119;53.218;6.576;2023-09-19T06:22:53;16.90;99.90
58554;DHT22;48119;53.218;6.576;2023-09-19T06:25:20;16.90;99.90
58554;DHT22;48119;53.218;6.576;2023-09-19T06:27:46;16.80;99.90
58554;DHT22;48119;53.218;6.576;2023-09-19T06:30:12;16.90;99.90
58554;DHT22;48119;53.218;6.576;2023-09-19T06:32:39;16.90;99.90
58554;DHT22;48119;53.218;6.576;2023-09-19T06:35:05;16.90;99.90
58554;DHT22;48119;53.218;6.576;2023-09-19T06:37:35;16.90;99.90
58554;DHT22;48119;53.218;6.576;2023-09-19T06:40:01;17.00;99.90
58554;DHT22;48119;53.218;6.576;2023-09-19T06:42:30;17.00;99.90
58554;DHT22;48119;53.218;6.576;2023-09-19T06:44:56;17.00;99.90
58554;DHT22;48119;53.218;6.576;2023-09-19T06:47:22;17.00;99.90
58554;DHT22;48119;53.218;6.576;2023-09-19T06:49:47;17.00;99.90
58554;DHT22;48119;53.218;6.576;2023-09-19T06:52:13;17.10;99.90
58554;DHT22;48119;53.218;6.576;2023-09-19T06:54:39;17.10;99.90
58554;DHT22;48119;53.218;6.576;2023-09-19T06:57:08;17.10;99.90
58554;DHT22;48119;53.218;6.576;2023-09-19T06:59:35;17.10;99.90
58554;DHT22;48119;53.218;6.576;2023-09-19T07:02:02;17.00;99.90
58554;DHT22;48119;53.218;6.576;2023-09-19T07:04:28;17.10;99.90
58554;DHT22;48119;53.218;6.576;2023-09-19T07:06:54;17.10;99.90
58554;DHT22;48119;53.218;6.576;2023-09-19T07:09:19;17.10;99.90
58554;DHT22;48119;53.218;6.576;2023-09-19T07:11:47;17.10;99.90
58554;DHT22;48119;53.218;6.576;2023-09-19T07:14:18;17.10;99.90
58554;DHT22;48119;53.218;6.576;2023-09-19T07:16:44;17.10;99.90
58554;DHT22;48119;53.218;6.576;2023-09-19T07:19:13;17.20;99.90
58554;DHT22;48119;53.218;6.576;2023-09-19T07:21:40;17.20;99.90
58554;DHT22;48119;53.218;6.576;2023-09-19T07:24:06;17.10;99.90
58554;DHT22;48119;53.218;6.576;2023-09-19T07:26:33;17.20;99.90
58554;DHT22;48119;53.218;6.576;2023-09-19T07:28:59;17.10;99.90
58554;DHT22;48119;53.218;6.576;2023-09-19T07:31:25;17.10;99.90
58554;DHT22;48119;53.218;6.576;2023-09-19T07:33:52;17.20;99.90
58554;DHT22;48119;53.218;6.576;2023-09-19T07:36:19;17.20;99.90
58554;DHT22;48119;53.218;6.576;2023-09-19T07:38:45;17.20;99.90
58554;DHT22;48119;53.218;6.576;2023-09-19T07:41:11;17.20;99.90
58554;DHT22;48119;53.218;6.576;2023-09-19T07:43:36;17.20;99.90
58554;DHT22;48119;53.218;6.576;2023-09-19T07:46:07;17.30;99.90
58554;DHT22;48119;53.218;6.576;2023-09-19T07:48:34;17.30;99.90
58554;DHT22;48119;53.218;6.576;2023-09-19T07:51:04;17.30;99.90
58554;DHT22;48119;53.218;6.576;2023-09-19T07:53:31;17.30;99.90
58554;DHT22;48119;53.218;6.576;2023-09-19T07:56:04;17.30;99.90
58554;DHT22;48119;53.218;6.576;2023-09-19T07:58:29;17.30;99.90
58554;DHT22;48119;53.218;6.576;2023-09-19T08:00:55;17.30;99.90
58554;DHT22;48119;53.218;6.576;2023-09-19T08:03:21;17.30;99.90
58554;DHT22;48119;53.218;6.576;2023-09-19T08:05:46;17.30;99.90
58554;DHT22;48119;53.218;6.576;2023-09-19T08:08:13;17.40;99.90
58554;DHT22;48119;53.218;6.576;2023-09-19T08:10:40;17.40;99.90
58554;DHT22;48119;53.218;6.576;2023-09-19T08:13:07;17.40;99.90
58554;DHT22;48119;53.218;6.576;2023-09-19T08:15:42;17.40;99.90
58554;DHT22;48119;53.218;6.576;2023-09-19T08:18:09;17.40;99.90
58554;DHT22;48119;53.218;6.576;2023-09-19T08:20:37;17.40;99.90
58554;DHT22;48119;53.218;6.576;2023-09-19T08:23:03;17.40;99.90
58554;DHT22;48119;53.218;6.576;2023-09-19T08:25:29;17.30;99.90
58554;DHT22;48119;53.218;6.576;2023-09-19T08:27:55;17.30;99.90
58554;DHT22;48119;53.218;6.576;2023-09-19T08:30:23;17.40;99.90
58554;DHT22;48119;53.218;6.576;2023-09-19T08:33:01;17.40;99.90
58554;DHT22;48119;53.218;6.576;2023-09-19T08:35:30;17.40;99.90
58554;DHT22;48119;53.218;6.576;2023-09-19T08:37:55;17.40;99.90
58554;DHT22;48119;53.218;6.576;2023-09-19T08:40:22;17.40;99.90
58554;DHT22;48119;53.218;6.576;2023-09-19T08:42:56;17.50;99.90
58554;DHT22;48119;53.218;6.576;2023-09-19T08:45:23;17.50;99.90
58554;DHT22;48119;53.218;6.576;2023-09-19T08:50:36;17.50;99.90
58554;DHT22;48119;53.218;6.576;2023-09-19T08:53:07;17.60;99.90
58554;DHT22;48119;53.218;6.576;2023-09-19T08:55:36;17.60;99.90
58554;DHT22;48119;53.218;6.576;2023-09-19T08:58:06;17.60;99.90
58554;DHT22;48119;53.218;6.576;2023-09-19T09:00:35;17.70;99.90
58554;DHT22;48119;53.218;6.576;2023-09-19T09:03:01;17.70;99.90
58554;DHT22;48119;53.218;6.576;2023-09-19T09:05:28;17.70;99.90
58554;DHT22;48119;53.218;6.576;2023-09-19T09:07:55;17.70;99.90
58554;DHT22;48119;53.218;6.576;2023-09-19T09:10:22;17.70;99.90
58554;DHT22;48119;53.218;6.576;2023-09-19T09:12:49;17.80;99.90
58554;DHT22;48119;53.218;6.576;2023-09-19T09:15:17;17.80;99.90
58554;DHT22;48119;53.218;6.576;2023-09-19T09:17:46;17.80;99.90
58554;DHT22;48119;53.218;6.576;2023-09-19T09:20:13;17.80;99.90
58554;DHT22;48119;53.218;6.576;2023-09-19T09:22:38;17.80;99.90
58554;DHT22;48119;53.218;6.576;2023-09-19T09:25:09;17.80;99.90
58554;DHT22;48119;53.218;6.576;2023-09-19T09:27:35;17.80;99.90
58554;DHT22;48119;53.218;6.576;2023-09-19T09:30:01;17.80;99.90
58554;DHT22;48119;53.218;6.576;2023-09-19T09:32:27;17.80;99.90
58554;DHT22;48119;53.218;6.576;2023-09-19T09:37:20;17.80;99.90
58554;DHT22;48119;53.218;6.576;2023-09-19T09:40:03;17.90;99.90
58554;DHT22;48119;53.218;6.576;2023-09-19T09:42:41;17.90;99.90
58554;DHT22;48119;53.218;6.576;2023-09-19T09:45:23;17.90;99.90
58554;DHT22;48119;53.218;6.576;2023-09-19T09:47:58;17.90;99.90
58554;DHT22;48119;53.218;6.576;2023-09-19T09:52:55;18.00;99.90
58554;DHT22;48119;53.218;6.576;2023-09-19T09:55:27;18.00;99.90
58554;DHT22;48119;53.218;6.576;2023-09-19T10:00:55;18.10;99.90
58554;DHT22;48119;53.218;6.576;2023-09-19T10:03:33;18.20;99.90
58554;DHT22;48119;53.218;6.576;2023-09-19T10:06:00;18.20;99.90
58554;DHT22;48119;53.218;6.576;2023-09-19T10:08:27;18.20;99.90
58554;DHT22;48119;53.218;6.576;2023-09-19T10:10:56;18.20;99.90
58554;DHT22;48119;53.218;6.576;2023-09-19T10:13:30;18.30;99.90
58554;DHT22;48119;53.218;6.576;2023-09-19T10:15:56;18.30;99.90
58554;DHT22;48119;53.218;6.576;2023-09-19T10:18:24;18.30;99.90
58554;DHT22;48119;53.218;6.576;2023-09-19T10:20:51;18.30;99.90
58554;DHT22;48119;53.218;6.576;2023-09-19T10:23:17;18.40;99.90
58554;DHT22;48119;53.218;6.576;2023-09-19T10:25:48;18.40;99.90
58554;DHT22;48119;53.218;6.576;2023-09-19T10:28:14;18.40;99.90
58554;DHT22;48119;53.218;6.576;2023-09-19T10:30:44;18.50;99.90
58554;DHT22;48119;53.218;6.576;2023-09-19T10:33:11;18.50;99.90
58554;DHT22;48119;53.218;6.576;2023-09-19T10:35:38;18.50;99.90
58554;DHT22;48119;53.218;6.576;2023-09-19T10:38:06;18.50;99.90
58554;DHT22;48119;53.218;6.576;2023-09-19T10:40:32;18.50;99.90
58554;DHT22;48119;53.218;6.576;2023-09-19T10:43:03;18.50;99.90
58554;DHT22;48119;53.218;6.576;2023-09-19T10:45:32;18.50;99.90
58554;DHT22;48119;53.218;6.576;2023-09-19T10:48:02;18.60;99.90
58554;DHT22;48119;53.218;6.576;2023-09-19T10:50:50;18.60;99.90
58554;DHT22;48119;53.218;6.576;2023-09-19T10:53:14;18.60;99.90
58554;DHT22;48119;53.218;6.576;2023-09-19T10:55:41;18.60;99.90
58554;DHT22;48119;53.218;6.576;2023-09-19T10:58:13;18.60;99.90
58554;DHT22;48119;53.218;6.576;2023-09-19T11:00:53;18.60;99.90
58554;DHT22;48119;53.218;6.576;2023-09-19T11:03:19;18.60;99.90
58554;DHT22;48119;53.218;6.576;2023-09-19T11:09:02;18.60;99.90
58554;DHT22;48119;53.218;6.576;2023-09-19T11:22:19;18.70;99.90
58554;DHT22;48119;53.218;6.576;2023-09-19T11:24:47;18.60;99.90
58554;DHT22;48119;53.218;6.576;2023-09-19T11:27:13;18.60;99.90
58554;DHT22;48119;53.218;6.576;2023-09-19T11:29:39;18.70;99.90
58554;DHT22;48119;53.218;6.576;2023-09-19T11:32:06;18.70;99.90
58554;DHT22;48119;53.218;6.576;2023-09-19T11:34:38;18.70;99.90
58554;DHT22;48119;53.218;6.576;2023-09-19T11:39:39;18.70;99.90
58554;DHT22;48119;53.218;6.576;2023-09-19T11:44:52;18.70;99.90
58554;DHT22;48119;53.218;6.576;2023-09-19T11:47:21;18.80;99.90
58554;DHT22;48119;53.218;6.576;2023-09-19T11:49:50;18.70;99.90
58554;DHT22;48119;53.218;6.576;2023-09-19T11:52:22;18.70;99.90
58554;DHT22;48119;53.218;6.576;2023-09-19T11:54:56;18.80;99.90
58554;DHT22;48119;53.218;6.576;2023-09-19T11:57:25;18.70;99.90
58554;DHT22;48119;53.218;6.576;2023-09-19T11:59:51;18.80;99.90
58554;DHT22;48119;53.218;6.576;2023-09-19T12:02:30;18.80;99.90
58554;DHT22;48119;53.218;6.576;2023-09-19T12:05:00;18.80;99.90
58554;DHT22;48119;53.218;6.576;2023-09-19T12:07:26;18.80;99.90
58554;DHT22;48119;53.218;6.576;2023-09-19T12:10:02;18.80;99.90
58554;DHT22;48119;53.218;6.576;2023-09-19T12:12:28;18.70;99.90
58554;DHT22;48119;53.218;6.576;2023-09-19T12:14:55;18.70;99.90
58554;DHT22;48119;53.218;6.576;2023-09-19T12:17:46;18.70;99.90
58554;DHT22;48119;53.218;6.576;2023-09-19T12:20:10;18.70;99.90
58554;DHT22;48119;53.218;6.576;2023-09-19T12:22:45;18.70;99.90
58554;DHT22;48119;53.218;6.576;2023-09-19T12:25:14;18.70;99.90
58554;DHT22;48119;53.218;6.576;2023-09-19T12:27:45;18.70;99.90
58554;DHT22;48119;53.218;6.576;2023-09-19T12:30:21;18.70;99.90
58554;DHT22;48119;53.218;6.576;2023-09-19T12:32:52;18.70;99.90
58554;DHT22;48119;53.218;6.576;2023-09-19T12:35:27;18.70;99.90
58554;DHT22;48119;53.218;6.576;2023-09-19T12:37:54;18.70;99.90
58554;DHT22;48119;53.218;6.576;2023-09-19T12:40:21;18.70;99.90
58554;DHT22;48119;53.218;6.576;2023-09-19T12:42:53;18.70;99.90
58554;DHT22;48119;53.218;6.576;2023-09-19T12:45:20;18.60;99.90
58554;DHT22;48119;53.218;6.576;2023-09-19T12:50:32;18.70;99.90
58554;DHT22;48119;53.218;6.576;2023-09-19T12:52:58;18.70;99.90
58554;DHT22;48119;53.218;6.576;2023-09-19T12:55:26;18.70;99.90
58554;DHT22;48119;53.218;6.576;2023-09-19T13:03:25;18.70;99.90
58554;DHT22;48119;53.218;6.576;2023-09-19T13:05:55;18.70;99.90
58554;DHT22;48119;53.218;6.576;2023-09-19T13:08:23;18.70;99.90
58554;DHT22;48119;53.218;6.576;2023-09-19T13:11:01;18.70;99.90
58554;DHT22;48119;53.218;6.576;2023-09-19T13:13:27;18.70;99.90
58554;DHT22;48119;53.218;6.576;2023-09-19T13:15:55;18.70;99.90
58554;DHT22;48119;53.218;6.576;2023-09-19T13:18:23;18.70;99.90
58554;DHT22;48119;53.218;6.576;2023-09-19T13:21:07;18.70;99.90
58554;DHT22;48119;53.218;6.576;2023-09-19T13:23:41;18.70;99.90
58554;DHT22;48119;53.218;6.576;2023-09-19T13:26:07;18.70;99.90
58554;DHT22;48119;53.218;6.576;2023-09-19T13:28:33;18.60;99.90
58554;DHT22;48119;53.218;6.576;2023-09-19T13:30:59;18.70;99.90
58554;DHT22;48119;53.218;6.576;2023-09-19T13:33:24;18.60;99.90
58554;DHT22;48119;53.218;6.576;2023-09-19T13:35:52;18.70;99.90
58554;DHT22;48119;53.218;6.576;2023-09-19T13:38:18;18.60;99.90
58554;DHT22;48119;53.218;6.576;2023-09-19T13:40:47;18.60;99.90
58554;DHT22;48119;53.218;6.576;2023-09-19T13:43:13;18.60;99.90
58554;DHT22;48119;53.218;6.576;2023-09-19T13:45:39;18.70;99.90
58554;DHT22;48119;53.218;6.576;2023-09-19T13:48:07;18.70;99.90
58554;DHT22;48119;53.218;6.576;2023-09-19T13:50:36;18.70;99.90
58554;DHT22;48119;53.218;6.576;2023-09-19T13:53:07;18.70;99.90
58554;DHT22;48119;53.218;6.576;2023-09-19T13:55:33;18.70;99.90
58554;DHT22;48119;53.218;6.576;2023-09-19T13:57:59;18.70;99.90
58554;DHT22;48119;53.218;6.576;2023-09-19T14:00:25;18.70;99.90
58554;DHT22;48119;53.218;6.576;2023-09-19T14:02:51;18.70;99.90
58554;DHT22;48119;53.218;6.576;2023-09-19T14:05:17;18.70;99.90
58554;DHT22;48119;53.218;6.576;2023-09-19T14:07:44;18.70;99.90
58554;DHT22;48119;53.218;6.576;2023-09-19T14:10:11;18.80;99.90
58554;DHT22;48119;53.218;6.576;2023-09-19T14:12:37;18.80;99.90
58554;DHT22;48119;53.218;6.576;2023-09-19T14:15:06;18.80;99.90
58554;DHT22;48119;53.218;6.576;2023-09-19T14:17:32;18.80;99.90
58554;DHT22;48119;53.218;6.576;2023-09-19T14:19:58;18.80;99.90
58554;DHT22;48119;53.218;6.576;2023-09-19T14:22:26;18.80;99.90
58554;DHT22;48119;53.218;6.576;2023-09-19T14:24:52;18.80;99.90
58554;DHT22;48119;53.218;6.576;2023-09-19T14:27:18;18.80;99.90
58554;DHT22;48119;53.218;6.576;2023-09-19T14:29:44;18.80;99.90
58554;DHT22;48119;53.218;6.576;2023-09-19T14:32:09;18.80;99.90
58554;DHT22;48119;53.218;6.576;2023-09-19T14:34:35;18.80;99.90
58554;DHT22;48119;53.218;6.576;2023-09-19T14:37:07;18.80;99.90
58554;DHT22;48119;53.218;6.576;2023-09-19T14:39:33;18.80;99.90
58554;DHT22;48119;53.218;6.576;2023-09-19T14:41:58;18.80;99.90
58554;DHT22;48119;53.218;6.576;2023-09-19T14:44:24;18.80;99.90
58554;DHT22;48119;53.218;6.576;2023-09-19T14:46:50;18.80;99.90
58554;DHT22;48119;53.218;6.576;2023-09-19T14:49:16;18.90;99.90
58554;DHT22;48119;53.218;6.576;2023-09-19T14:51:42;18.80;99.90
58554;DHT22;48119;53.218;6.576;2023-09-19T14:54:12;18.80;99.90
58554;DHT22;48119;53.218;6.576;2023-09-19T14:56:38;18.90;99.90
58554;DHT22;48119;53.218;6.576;2023-09-19T14:59:04;18.80;99.90
58554;DHT22;48119;53.218;6.576;2023-09-19T15:01:30;18.80;99.90
58554;DHT22;48119;53.218;6.576;2023-09-19T15:03:55;18.80;99.90
58554;DHT22;48119;53.218;6.576;2023-09-19T15:06:21;18.80;99.90
58554;DHT22;48119;53.218;6.576;2023-09-19T15:08:47;18.80;99.90
58554;DHT22;48119;53.218;6.576;2023-09-19T15:11:13;18.80;99.90
58554;DHT22;48119;53.218;6.576;2023-09-19T15:13:41;18.80;99.90
58554;DHT22;48119;53.218;6.576;2023-09-19T15:16:08;18.80;99.90
58554;DHT22;48119;53.218;6.576;2023-09-19T15:18:37;18.80;99.90
58554;DHT22;48119;53.218;6.576;2023-09-19T15:21:03;18.80;99.90
58554;DHT22;48119;53.218;6.576;2023-09-19T15:23:29;18.80;99.90
58554;DHT22;48119;53.218;6.576;2023-09-19T15:25:56;18.80;99.90
58554;DHT22;48119;53.218;6.576;2023-09-19T15:28:22;18.80;99.90
58554;DHT22;48119;53.218;6.576;2023-09-19T15:30:57;18.80;99.90
58554;DHT22;48119;53.218;6.576;2023-09-19T15:33:22;18.80;99.90
58554;DHT22;48119;53.218;6.576;2023-09-19T15:35:48;18.80;99.90
58554;DHT22;48119;53.218;6.576;2023-09-19T15:38:16;18.80;99.90
58554;DHT22;48119;53.218;6.576;2023-09-19T15:40:46;18.80;99.90
58554;DHT22;48119;53.218;6.576;2023-09-19T15:43:11;18.80;99.90
58554;DHT22;48119;53.218;6.576;2023-09-19T15:45:37;18.70;99.90
58554;DHT22;48119;53.218;6.576;2023-09-19T15:48:03;18.70;99.90
58554;DHT22;48119;53.218;6.576;2023-09-19T15:50:30;18.70;99.90
58554;DHT22;48119;53.218;6.576;2023-09-19T15:52:55;18.70;99.90
58554;DHT22;48119;53.218;6.576;2023-09-19T15:55:21;18.60;99.90
58554;DHT22;48119;53.218;6.576;2023-09-19T15:57:47;18.60;99.90
58554;DHT22;48119;53.218;6.576;2023-09-19T16:00:13;18.60;99.90
58554;DHT22;48119;53.218;6.576;2023-09-19T16:02:42;18.60;99.90
58554;DHT22;48119;53.218;6.576;2023-09-19T16:05:10;18.60;99.90
58554;DHT22;48119;53.218;6.576;2023-09-19T16:07:37;18.50;99.90
58554;DHT22;48119;53.218;6.576;2023-09-19T16:10:03;18.60;99.90
58554;DHT22;48119;53.218;6.576;2023-09-19T16:12:29;18.50;99.90
58554;DHT22;48119;53.218;6.576;2023-09-19T16:14:56;18.60;99.90
58554;DHT22;48119;53.218;6.576;2023-09-19T16:17:21;18.60;99.90
58554;DHT22;48119;53.218;6.576;2023-09-19T16:19:47;18.60;99.90
58554;DHT22;48119;53.218;6.576;2023-09-19T16:22:13;18.60;99.90
58554;DHT22;48119;53.218;6.576;2023-09-19T16:24:39;18.60;99.90
58554;DHT22;48119;53.218;6.576;2023-09-19T16:27:04;18.60;99.90
58554;DHT22;48119;53.218;6.576;2023-09-19T16:29:31;18.50;99.90
58554;DHT22;48119;53.218;6.576;2023-09-19T16:31:57;18.50;99.90
58554;DHT22;48119;53.218;6.576;2023-09-19T16:34:22;18.50;99.90
58554;DHT22;48119;53.218;6.576;2023-09-19T16:36:48;18.50;99.90
58554;DHT22;48119;53.218;6.576;2023-09-19T16:39:14;18.50;99.90
58554;DHT22;48119;53.218;6.576;2023-09-19T16:41:39;18.50;99.90
58554;DHT22;48119;53.218;6.576;2023-09-19T16:44:06;18.40;99.90
58554;DHT22;48119;53.218;6.576;2023-09-19T16:46:33;18.40;99.90
58554;DHT22;48119;53.218;6.576;2023-09-19T16:48:59;18.50;99.90